createdAt,value
2022-10-20T00:00:15.265Z,101392.63
2022-10-20T00:02:42.015Z,101381.50
2022-10-20T00:05:08.751Z,101382.22
2022-10-20T00:07:35.401Z,101378.56
2022-10-20T00:10:02.030Z,101385.53
2022-10-20T00:12:29.270Z,101390.69
2022-10-20T00:14:56.028Z,101390.91
2022-10-20T00:17:22.685Z,101392.66
2022-10-20T00:19:49.361Z,101387.88
2022-10-20T00:22:16.170Z,101388.09
2022-10-20T00:24:42.823Z,101378.56
2022-10-20T00:27:09.599Z,101376.13
2022-10-20T00:29:36.300Z,101379.59
2022-10-20T00:32:02.925Z,101383.97
2022-10-20T00:34:29.555Z,101379.63
2022-10-20T00:36:56.151Z,101379.66
2022-10-20T00:39:22.804Z,101378.78
2022-10-20T00:41:49.402Z,101378.69
2022-10-20T00:44:34.910Z,101372.44
2022-10-20T00:47:01.556Z,101368.41
2022-10-20T00:49:28.456Z,101353.47
2022-10-20T00:51:55.225Z,101366.72
2022-10-20T00:54:23.788Z,101365.94
2022-10-20T00:56:51.379Z,101376.69
2022-10-20T00:59:22.537Z,101379.56
2022-10-20T01:01:49.858Z,101378.66
2022-10-20T01:04:17.376Z,101375.09
2022-10-20T01:06:44.084Z,101377.22
2022-10-20T01:09:11.074Z,101372.72
2022-10-20T01:11:56.451Z,101374.69
2022-10-20T01:14:38.893Z,101368.81
2022-10-20T01:17:19.513Z,101363.59
2022-10-20T01:19:46.093Z,101374.09
2022-10-20T01:22:16.603Z,101371.34
2022-10-20T01:24:48.243Z,101372.37
2022-10-20T01:27:34.005Z,101370.53
2022-10-20T01:30:12.642Z,101362.66
2022-10-20T01:32:39.196Z,101358.28
2022-10-20T01:35:38.236Z,101355.66
2022-10-20T01:38:04.936Z,101349.59
2022-10-20T01:40:47.404Z,101347.91
2022-10-20T01:43:15.236Z,101345.97
2022-10-20T01:45:43.947Z,101349.50
2022-10-20T01:48:12.169Z,101356.44
2022-10-20T01:50:39.936Z,101356.31
2022-10-20T01:53:06.640Z,101356.06
2022-10-20T01:55:33.877Z,101358.00
2022-10-20T01:58:33.050Z,101351.09
2022-10-20T02:01:05.754Z,101344.31
2022-10-20T02:04:01.580Z,101348.63
2022-10-20T02:06:33.530Z,101364.47
2022-10-20T02:09:03.787Z,101355.53
2022-10-20T02:11:30.379Z,101359.69
2022-10-20T02:13:57.959Z,101356.06
2022-10-20T02:16:36.115Z,101360.81
2022-10-20T02:19:04.293Z,101359.03
2022-10-20T02:21:31.429Z,101358.22
2022-10-20T02:24:00.844Z,101353.81
2022-10-20T02:26:27.492Z,101357.41
2022-10-20T02:28:57.754Z,101368.91
2022-10-20T02:34:42.627Z,101367.28
2022-10-20T02:37:12.428Z,101363.13
2022-10-20T02:39:42.351Z,101376.69
2022-10-20T02:42:13.910Z,101367.91
2022-10-20T02:44:48.980Z,101376.91
2022-10-20T02:47:24.411Z,101373.72
2022-10-20T02:49:52.579Z,101381.94
2022-10-20T02:52:25.573Z,101377.88
2022-10-20T02:54:56.894Z,101373.22
2022-10-20T02:57:24.097Z,101367.16
2022-10-20T02:59:51.152Z,101375.00
2022-10-20T03:02:40.214Z,101373.41
2022-10-20T03:05:09.224Z,101385.56
2022-10-20T03:07:46.235Z,101377.06
2022-10-20T03:10:19.503Z,101373.16
2022-10-20T03:12:46.175Z,101371.41
2022-10-20T03:15:12.899Z,101374.16
2022-10-20T03:17:39.690Z,101366.88
2022-10-20T03:20:06.623Z,101374.22
2022-10-20T03:22:33.364Z,101373.22
2022-10-20T03:24:59.954Z,101374.22
2022-10-20T03:27:26.604Z,101377.84
2022-10-20T03:29:53.227Z,101367.25
2022-10-20T03:32:19.814Z,101376.81
2022-10-20T03:34:46.464Z,101373.41
2022-10-20T03:37:13.073Z,101377.88
2022-10-20T03:39:39.711Z,101387.44
2022-10-20T03:42:06.278Z,101389.19
2022-10-20T03:44:32.940Z,101382.28
2022-10-20T03:47:00.612Z,101384.56
2022-10-20T03:50:02.350Z,101384.12
2022-10-20T03:52:55.810Z,101390.91
2022-10-20T03:55:29.016Z,101394.38
2022-10-20T03:58:16.216Z,101396.41
2022-10-20T04:01:03.440Z,101397.81
2022-10-20T04:03:34.082Z,101398.69
2022-10-20T04:09:02.917Z,101396.13
2022-10-20T04:11:29.600Z,101400.44
2022-10-20T04:13:56.261Z,101396.34
2022-10-20T04:16:23.042Z,101391.97
2022-10-20T04:18:49.631Z,101390.28
2022-10-20T04:21:16.292Z,101393.22
2022-10-20T04:23:42.942Z,101392.25
2022-10-20T04:26:10.744Z,101383.50
2022-10-20T04:28:37.925Z,101389.72
2022-10-20T04:31:04.812Z,101381.75
2022-10-20T04:33:31.443Z,101387.56
2022-10-20T04:35:59.293Z,101382.31
2022-10-20T04:38:26.198Z,101390.16
2022-10-20T04:40:59.089Z,101373.69
2022-10-20T04:43:28.550Z,101385.87
2022-10-20T04:46:00.705Z,101376.25
2022-10-20T04:48:29.517Z,101371.28
2022-10-20T04:51:00.061Z,101380.34
2022-10-20T04:53:26.709Z,101399.53
2022-10-20T04:55:57.060Z,101400.47
2022-10-20T04:58:24.082Z,101387.50
2022-10-20T05:00:50.781Z,101388.44
2022-10-20T05:03:19.171Z,101388.72
2022-10-20T05:05:46.499Z,101389.66
2022-10-20T05:08:13.179Z,101389.13
2022-10-20T05:10:39.872Z,101394.62
2022-10-20T05:13:06.539Z,101402.22
2022-10-20T05:15:33.143Z,101395.78
2022-10-20T05:17:59.809Z,101414.88
2022-10-20T05:20:26.444Z,101420.31
2022-10-20T05:22:53.083Z,101415.06
2022-10-20T05:28:06.803Z,101409.53
2022-10-20T05:30:36.695Z,101407.84
2022-10-20T05:33:03.937Z,101413.00
2022-10-20T05:35:30.991Z,101408.62
2022-10-20T05:37:57.632Z,101412.31
2022-10-20T05:40:24.561Z,101424.53
2022-10-20T05:42:51.200Z,101417.16
2022-10-20T05:45:18.251Z,101420.22
2022-10-20T05:47:44.852Z,101419.56
2022-10-20T05:50:19.513Z,101417.88
2022-10-20T05:52:46.392Z,101422.44
2022-10-20T05:55:13.241Z,101423.59
2022-10-20T05:57:44.074Z,101417.13
2022-10-20T06:00:58.467Z,101405.69
2022-10-20T06:03:09.474Z,101417.72
2022-10-20T06:05:53.893Z,101422.88
2022-10-20T06:08:25.020Z,101433.97
2022-10-20T06:11:02.466Z,101430.84
2022-10-20T06:13:30.124Z,101429.00
2022-10-20T06:16:03.462Z,101430.00
2022-10-20T06:18:40.136Z,101426.09
2022-10-20T06:21:17.384Z,101430.28
2022-10-20T06:23:57.052Z,101429.94
2022-10-20T06:26:25.145Z,101428.50
2022-10-20T06:29:04.950Z,101432.19
2022-10-20T06:31:35.002Z,101438.69
2022-10-20T06:34:04.293Z,101445.12
2022-10-20T06:36:31.314Z,101431.00
2022-10-20T06:38:58.864Z,101439.06
2022-10-20T06:41:26.950Z,101441.75
2022-10-20T06:44:00.747Z,101443.47
2022-10-20T06:46:29.790Z,101443.34
2022-10-20T06:49:00.032Z,101448.56
2022-10-20T06:51:29.472Z,101443.09
2022-10-20T06:53:59.041Z,101438.56
2022-10-20T06:56:27.362Z,101439.81
2022-10-20T06:58:57.641Z,101447.16
2022-10-20T07:01:25.894Z,101449.59
2022-10-20T07:03:58.111Z,101443.06
2022-10-20T07:06:51.541Z,101446.38
2022-10-20T07:09:21.305Z,101448.00
2022-10-20T07:12:04.015Z,101455.31
2022-10-20T07:14:33.537Z,101462.78
2022-10-20T07:17:01.680Z,101456.84
2022-10-20T07:19:41.201Z,101451.53
2022-10-20T07:38:59.799Z,101456.31
2022-10-20T07:51:25.534Z,101450.09
2022-10-20T07:54:16.824Z,101457.00
2022-10-20T07:56:46.652Z,101452.66
2022-10-20T08:02:11.235Z,101449.53
2022-10-20T08:04:44.275Z,101445.12
2022-10-20T08:07:11.735Z,101451.66
2022-10-20T08:09:39.322Z,101442.06
2022-10-20T08:12:08.672Z,101439.94
2022-10-20T08:14:38.144Z,101438.03
2022-10-20T08:17:08.497Z,101419.09
2022-10-20T08:19:57.189Z,101431.34
2022-10-20T08:22:26.603Z,101420.00
2022-10-20T08:25:02.410Z,101430.78
2022-10-20T08:27:29.243Z,101432.66
2022-10-20T08:30:12.363Z,101431.81
2022-10-20T08:32:45.732Z,101439.59
2022-10-20T08:35:18.911Z,101429.34
2022-10-20T08:37:59.622Z,101433.87
2022-10-20T08:40:42.919Z,101430.88
2022-10-20T08:44:13.630Z,101421.03
2022-10-20T08:46:43.990Z,101420.47
2022-10-20T08:50:19.712Z,101419.78
2022-10-20T08:52:33.858Z,101411.97
2022-10-20T08:55:01.002Z,101415.56
2022-10-20T08:57:36.076Z,101408.19
2022-10-20T09:00:46.421Z,101403.34
2022-10-20T09:03:24.790Z,101404.41
2022-10-20T09:05:56.941Z,101404.97
2022-10-20T09:08:26.463Z,101400.03
2022-10-20T09:10:54.850Z,101401.19
2022-10-20T09:13:26.642Z,101405.34
2022-10-20T09:15:59.303Z,101392.66
2022-10-20T09:18:30.951Z,101398.50
2022-10-20T09:21:24.211Z,101398.16
2022-10-20T09:24:14.823Z,101402.19
2022-10-20T09:26:58.563Z,101401.75
2022-10-20T09:29:47.596Z,101405.84
2022-10-20T09:32:48.486Z,101394.84
2022-10-20T09:35:15.542Z,101392.31
2022-10-20T09:37:44.571Z,101403.88
2022-10-20T09:40:15.734Z,101410.97
2022-10-20T09:42:47.941Z,101399.22
2022-10-20T09:45:28.917Z,101392.87
2022-10-20T09:48:02.231Z,101392.16
2022-10-20T09:50:43.074Z,101402.31
2022-10-20T09:53:17.962Z,101400.03
2022-10-20T09:55:54.631Z,101392.19
2022-10-20T09:58:29.074Z,101394.59
2022-10-20T10:01:16.277Z,101389.75
2022-10-20T10:04:10.293Z,101390.88
2022-10-20T10:06:43.648Z,101384.72
2022-10-20T10:09:26.711Z,101386.66
2022-10-20T10:15:27.043Z,101396.81
2022-10-20T10:18:02.758Z,101394.56
2022-10-20T10:20:33.406Z,101399.34
2022-10-20T10:23:19.143Z,101390.03
2022-10-20T10:25:46.045Z,101383.59
2022-10-20T10:28:22.943Z,101385.06
2022-10-20T10:30:50.239Z,101367.81
2022-10-20T10:33:24.441Z,101364.63
2022-10-20T10:36:04.062Z,101367.00
2022-10-20T10:38:30.843Z,101369.72
2022-10-20T10:41:17.214Z,101367.69
2022-10-20T10:43:55.324Z,101363.28
2022-10-20T10:46:27.794Z,101357.75
2022-10-20T10:48:57.691Z,101356.28
2022-10-20T10:51:34.296Z,101359.09
2022-10-20T10:54:12.265Z,101355.53
2022-10-20T10:56:39.352Z,101349.22
2022-10-20T10:59:11.791Z,101354.31
2022-10-20T11:01:51.188Z,101347.22
2022-10-20T11:04:22.961Z,101340.56
2022-10-20T11:06:53.042Z,101336.69
2022-10-20T11:09:36.675Z,101345.31
2022-10-20T11:12:26.973Z,101341.06
2022-10-20T11:15:14.733Z,101344.44
2022-10-20T11:17:41.721Z,101336.38
2022-10-20T11:20:45.761Z,101323.12
2022-10-20T11:23:22.665Z,101326.06
2022-10-20T11:25:55.492Z,101308.59
2022-10-20T11:28:28.811Z,101317.97
2022-10-20T11:30:57.452Z,101312.56
2022-10-20T11:33:29.174Z,101308.37
2022-10-20T11:36:09.154Z,101311.13
2022-10-20T11:38:39.092Z,101308.81
2022-10-20T11:41:13.450Z,101308.84
2022-10-20T11:43:45.733Z,101294.63
2022-10-20T11:46:22.712Z,101289.47
2022-10-20T11:48:52.320Z,101284.31
2022-10-20T11:54:39.442Z,101275.56
2022-10-20T11:57:10.812Z,101268.34
2022-10-20T11:59:46.483Z,101270.59
2022-10-20T12:02:13.868Z,101255.59
2022-10-20T12:04:59.727Z,101253.03
2022-10-20T12:07:26.761Z,101257.78
2022-10-20T12:10:03.752Z,101254.28
2022-10-20T12:12:41.481Z,101245.53
2022-10-20T12:15:28.306Z,101242.28
2022-10-20T12:18:03.113Z,101246.16
2022-10-20T12:20:34.262Z,101234.31
2022-10-20T12:23:02.950Z,101239.50
2022-10-20T12:25:40.762Z,101236.75
2022-10-20T12:28:23.070Z,101235.81
2022-10-20T12:30:57.790Z,101238.41
2022-10-20T12:33:37.323Z,101238.50
2022-10-20T12:36:14.413Z,101239.78
2022-10-20T12:38:42.348Z,101228.25
2022-10-20T12:41:10.241Z,101236.91
2022-10-20T12:43:47.961Z,101222.63
2022-10-20T12:46:21.567Z,101217.22
2022-10-20T12:48:50.709Z,101219.72
2022-10-20T12:51:19.681Z,101223.19
2022-10-20T12:53:51.585Z,101218.06
2022-10-20T12:56:21.422Z,101216.53
2022-10-20T12:59:08.602Z,101223.19
2022-10-20T13:02:02.259Z,101214.31
2022-10-20T13:04:53.717Z,101205.81
2022-10-20T13:07:43.759Z,101204.31
2022-10-20T13:10:29.678Z,101206.78
2022-10-20T13:13:02.961Z,101196.19
2022-10-20T13:15:42.312Z,101198.94
2022-10-20T13:18:12.332Z,101192.72
2022-10-20T13:20:51.403Z,101193.66
2022-10-20T13:23:24.253Z,101205.03
2022-10-20T13:25:53.415Z,101201.09
2022-10-20T13:28:29.020Z,101193.09
2022-10-20T13:30:55.842Z,101182.44
2022-10-20T13:36:48.282Z,101193.69
2022-10-20T13:39:15.094Z,101188.88
2022-10-20T13:42:09.766Z,101187.72
2022-10-20T13:44:45.818Z,101189.00
2022-10-20T13:47:26.702Z,101179.53
2022-10-20T13:50:06.210Z,101174.44
2022-10-20T13:52:35.487Z,101181.38
2022-10-20T13:55:02.918Z,101180.88
2022-10-20T13:57:31.393Z,101163.59
2022-10-20T14:00:09.651Z,101171.00
2022-10-20T14:02:36.878Z,101170.06
2022-10-20T14:05:03.848Z,101175.09
2022-10-20T14:07:38.756Z,101175.25
2022-10-20T14:10:05.862Z,101173.81
2022-10-20T14:12:33.348Z,101161.91
2022-10-20T14:15:02.240Z,101169.69
2022-10-20T14:17:29.551Z,101170.00
2022-10-20T14:20:15.134Z,101165.19
2022-10-20T14:22:44.078Z,101160.00
2022-10-20T14:25:11.294Z,101162.75
2022-10-20T14:27:38.694Z,101168.25
2022-10-20T14:30:06.412Z,101165.72
2022-10-20T14:32:35.833Z,101163.16
2022-10-20T14:35:12.151Z,101160.69
2022-10-20T14:37:40.778Z,101149.22
2022-10-20T14:40:25.727Z,101160.31
2022-10-20T14:42:52.961Z,101145.66
2022-10-20T14:45:21.077Z,101144.38
2022-10-20T14:47:48.629Z,101145.66
2022-10-20T14:50:33.436Z,101141.06
2022-10-20T14:53:30.025Z,101137.66
2022-10-20T14:56:00.385Z,101140.84
2022-10-20T14:58:36.643Z,101147.56
2022-10-20T15:01:19.119Z,101143.25
2022-10-20T15:03:45.951Z,101139.22
2022-10-20T15:06:16.925Z,101140.31
2022-10-20T15:08:52.534Z,101135.72
2022-10-20T15:11:23.886Z,101139.81
2022-10-20T15:13:54.335Z,101138.94
2022-10-20T15:16:35.935Z,101151.09
2022-10-20T15:19:17.861Z,101150.91
2022-10-20T15:21:44.523Z,101147.78
2022-10-20T15:24:11.184Z,101133.75
2022-10-20T15:26:37.830Z,101134.00
2022-10-20T15:29:06.240Z,101124.53
2022-10-20T15:31:33.007Z,101127.22
2022-10-20T15:33:59.758Z,101123.44
2022-10-20T15:36:33.324Z,101115.00
2022-10-20T15:39:00.767Z,101117.75
2022-10-20T15:41:30.190Z,101112.91
2022-10-20T15:43:57.481Z,101109.84
2022-10-20T15:46:24.206Z,101107.78
2022-10-20T15:48:50.881Z,101103.97
2022-10-20T15:51:21.122Z,101101.28
2022-10-20T15:53:49.662Z,101098.94
2022-10-20T15:56:16.913Z,101093.41
2022-10-20T15:58:43.565Z,101096.34
2022-10-20T16:01:13.645Z,101093.47
2022-10-20T16:03:41.550Z,101097.47
2022-10-20T16:06:08.266Z,101103.62
2022-10-20T16:08:35.559Z,101107.97
2022-10-20T16:11:02.846Z,101103.38
2022-10-20T16:13:29.513Z,101108.13
2022-10-20T16:15:59.899Z,101112.38
2022-10-20T16:18:31.248Z,101103.06
2022-10-20T16:21:06.215Z,101110.34
2022-10-20T16:23:42.142Z,101113.91
2022-10-20T16:26:12.529Z,101100.88
2022-10-20T16:28:40.708Z,101112.81
2022-10-20T16:31:09.068Z,101116.72
2022-10-20T16:33:36.669Z,101119.59
2022-10-20T16:38:40.575Z,101108.19
2022-10-20T16:41:12.821Z,101119.88
2022-10-20T16:43:45.042Z,101107.06
2022-10-20T16:46:12.672Z,101122.81
2022-10-20T16:48:41.543Z,101118.16
2022-10-20T16:51:12.427Z,101113.69
2022-10-20T16:53:39.341Z,101117.00
2022-10-20T16:56:06.790Z,101115.91
2022-10-20T16:58:33.720Z,101123.75
2022-10-20T17:01:02.157Z,101117.44
2022-10-20T17:03:30.541Z,101126.66
2022-10-20T17:05:58.534Z,101140.66
2022-10-20T17:08:26.383Z,101141.44
2022-10-20T17:10:57.196Z,101150.41
2022-10-20T17:13:23.914Z,101147.31
2022-10-20T17:15:50.973Z,101139.19
2022-10-20T17:18:18.372Z,101141.38
2022-10-20T17:20:45.131Z,101148.97
2022-10-20T17:23:11.871Z,101154.88
2022-10-20T17:25:39.324Z,101149.50
2022-10-20T17:28:06.144Z,101160.13
2022-10-20T17:30:32.834Z,101155.47
2022-10-20T17:32:59.587Z,101151.81
2022-10-20T17:35:29.356Z,101154.47
2022-10-20T17:37:56.045Z,101159.84
2022-10-20T17:40:22.767Z,101149.97
2022-10-20T17:42:49.726Z,101149.00
2022-10-20T17:45:16.853Z,101147.28
2022-10-20T17:47:43.593Z,101138.69
2022-10-20T17:50:10.703Z,101143.00
2022-10-20T17:52:37.796Z,101142.94
2022-10-20T17:55:05.258Z,101142.22
2022-10-20T17:57:32.308Z,101141.28
2022-10-20T18:00:00.435Z,101138.00
2022-10-20T18:02:29.928Z,101134.34
2022-10-20T18:04:56.655Z,101136.47
2022-10-20T18:07:23.466Z,101136.31
2022-10-20T18:09:50.231Z,101139.00
2022-10-20T18:12:16.961Z,101143.34
2022-10-20T18:14:43.681Z,101134.59
2022-10-20T18:17:10.414Z,101138.28
2022-10-20T18:19:37.154Z,101136.50
2022-10-20T18:22:06.185Z,101127.66
2022-10-20T18:24:33.226Z,101133.09
2022-10-20T18:27:00.136Z,101134.09
2022-10-20T18:29:27.016Z,101132.25
2022-10-20T18:31:54.871Z,101130.72
2022-10-20T18:34:21.590Z,101128.19
2022-10-20T18:36:48.624Z,101129.97
2022-10-20T18:39:17.937Z,101123.78
2022-10-20T18:41:45.728Z,101121.94
2022-10-20T18:44:17.667Z,101130.00
2022-10-20T18:46:51.657Z,101129.06
2022-10-20T18:49:21.784Z,101127.38
2022-10-20T18:51:48.627Z,101124.72
2022-10-20T18:54:15.548Z,101122.06
2022-10-20T18:56:43.267Z,101120.34
2022-10-20T18:59:12.278Z,101123.97
2022-10-20T19:01:39.985Z,101126.78
2022-10-20T19:04:07.488Z,101126.91
2022-10-20T19:06:36.851Z,101129.63
2022-10-20T19:09:05.024Z,101126.06
2022-10-20T19:11:32.976Z,101137.53
2022-10-20T19:14:00.404Z,101137.66
2022-10-20T19:16:28.637Z,101137.56
2022-10-20T19:18:56.153Z,101132.41
2022-10-20T19:21:24.285Z,101135.84
2022-10-20T19:23:53.119Z,101132.28
2022-10-20T19:26:24.021Z,101132.28
2022-10-20T19:28:58.255Z,101120.84
2022-10-20T19:31:31.351Z,101123.56
2022-10-20T19:33:59.637Z,101131.47
2022-10-20T19:36:27.390Z,101128.81
2022-10-20T19:38:54.152Z,101134.12
2022-10-20T19:41:20.851Z,101135.06
2022-10-20T19:43:49.461Z,101130.66
2022-10-20T19:46:17.093Z,101139.16
2022-10-20T19:48:44.486Z,101134.00
2022-10-20T19:51:11.197Z,101129.72
2022-10-20T19:53:39.127Z,101132.31
2022-10-20T19:56:06.894Z,101131.47
2022-10-20T19:58:34.650Z,101134.94
2022-10-20T20:01:01.406Z,101137.50
2022-10-20T20:03:28.214Z,101131.41
2022-10-20T20:06:02.289Z,101127.91
2022-10-20T20:08:29.721Z,101133.94
2022-10-20T20:10:57.446Z,101135.78
2022-10-20T20:13:24.518Z,101138.44
2022-10-20T20:15:51.517Z,101125.25
2022-10-20T20:18:18.796Z,101131.06
2022-10-20T20:20:47.346Z,101138.84
2022-10-20T20:23:15.018Z,101133.75
2022-10-20T20:25:42.667Z,101127.78
2022-10-20T20:28:09.996Z,101131.38
2022-10-20T20:30:37.079Z,101133.13
2022-10-20T20:33:03.802Z,101133.06
2022-10-20T20:35:30.639Z,101137.53
2022-10-20T20:37:57.268Z,101144.53
2022-10-20T20:40:23.862Z,101151.53
2022-10-20T20:42:50.479Z,101151.50
2022-10-20T20:45:17.204Z,101149.28
2022-10-20T20:47:46.817Z,101141.44
2022-10-20T20:50:14.011Z,101147.81
2022-10-20T20:52:40.693Z,101134.53
2022-10-20T20:57:54.157Z,101127.56
2022-10-20T21:00:20.808Z,101130.31
2022-10-20T21:02:47.558Z,101130.28
2022-10-20T21:05:14.252Z,101120.66
2022-10-20T21:07:40.862Z,101119.72
2022-10-20T21:10:07.610Z,101117.19
2022-10-20T21:12:35.398Z,101124.06
2022-10-20T21:15:02.182Z,101126.81
2022-10-20T21:17:28.873Z,101129.34
2022-10-20T21:19:55.468Z,101126.72
2022-10-20T21:22:22.117Z,101123.09
2022-10-20T21:24:48.731Z,101122.38
2022-10-20T21:27:15.372Z,101116.72
2022-10-20T21:29:45.574Z,101122.78
2022-10-20T21:32:13.190Z,101121.34
2022-10-20T21:34:39.795Z,101117.69
2022-10-20T21:37:06.403Z,101131.44
2022-10-20T21:39:33.006Z,101129.72
2022-10-20T21:41:59.623Z,101114.09
2022-10-20T21:44:26.307Z,101107.25
2022-10-20T21:46:52.908Z,101102.91
2022-10-20T21:49:20.989Z,101109.06
2022-10-20T21:51:50.131Z,101090.66
2022-10-20T21:54:27.236Z,101099.19
2022-10-20T21:56:54.298Z,101096.69
2022-10-20T21:59:28.208Z,101099.28
2022-10-20T22:01:55.930Z,101098.50
2022-10-20T22:04:24.227Z,101099.25
2022-10-20T22:06:50.916Z,101100.94
2022-10-20T22:09:17.812Z,101095.41
2022-10-20T22:11:45.861Z,101100.94
2022-10-20T22:14:12.517Z,101103.44
2022-10-20T22:16:40.399Z,101106.25
2022-10-20T22:19:08.656Z,101114.94
2022-10-20T22:21:42.162Z,101116.78
2022-10-20T22:24:15.548Z,101115.53
2022-10-20T22:26:42.282Z,101120.53
2022-10-20T22:29:12.355Z,101120.31
2022-10-20T22:31:39.485Z,101121.50
2022-10-20T22:34:06.214Z,101111.06
2022-10-20T22:36:32.910Z,101118.19
2022-10-20T22:41:52.023Z,101122.66
2022-10-20T22:47:42.001Z,101120.12
2022-10-20T22:50:10.144Z,101119.19
2022-10-20T22:52:54.806Z,101113.00
2022-10-20T22:55:26.005Z,101113.00
2022-10-20T23:00:40.358Z,101103.16
2022-10-20T23:03:11.256Z,101095.44
2022-10-20T23:08:19.327Z,101096.19
2022-10-20T23:10:45.968Z,101098.03
2022-10-20T23:13:12.558Z,101105.66
2022-10-20T23:15:39.176Z,101096.12
2022-10-20T23:18:05.814Z,101096.91
2022-10-20T23:20:33.688Z,101084.75
2022-10-20T23:23:00.404Z,101078.63
2022-10-20T23:25:27.059Z,101076.63
2022-10-20T23:27:53.795Z,101091.44
2022-10-20T23:30:20.364Z,101089.06
2022-10-20T23:32:47.014Z,101092.56
2022-10-20T23:35:13.694Z,101092.09
2022-10-20T23:37:40.610Z,101096.34
2022-10-20T23:40:07.703Z,101104.34
2022-10-20T23:42:34.345Z,101102.94
2022-10-20T23:45:02.753Z,101108.09
2022-10-20T23:47:29.467Z,101106.59
2022-10-20T23:49:56.194Z,101105.06
2022-10-20T23:52:22.935Z,101100.16
2022-10-20T23:54:49.617Z,101084.22
2022-10-20T23:57:16.277Z,101089.06
2022-10-20T23:59:42.943Z,101085.72
